Time;durP1;ratioP1;P1;durP2;ratioP2;P2;SDS_P1;SDS_P2;PMS_P1;PMS_P2;Temp;Humidity;BMP_temperature;BMP_pressure;BME280_temperature;BME280_humidity;BME280_pressure;Samples;Min_cycle;Max_cycle;Signal;HPM_P1;HPM_P2
2021/12/11 00:00:14;;;;;;;23.50;11.40;;;;;;;;;;4972379;28;20035;-78
2021/12/11 00:02:43;;;;;;;24.43;11.07;;;;;;;;;;4973601;28;20554;-75
2021/12/11 00:05:12;;;;;;;26.53;12.30;;;;;;;;;;4972294;28;20023;-76
2021/12/11 00:07:38;;;;;;;25.63;11.10;;;;;;;;;;4972616;28;20443;-77
2021/12/11 00:10:20;;;;;;;26.00;13.50;;;;;;;;;;4972111;28;20058;-77
2021/12/11 00:13:00;;;;;;;22.33;11.48;;;;;;;;;;4972231;28;20037;-75
2021/12/11 00:15:36;;;;;;;26.97;12.50;;;;;;;;;;4973135;28;20058;-77
2021/12/11 00:18:07;;;;;;;22.77;11.77;;;;;;;;;;4973450;28;20078;-77
2021/12/11 00:20:37;;;;;;;22.70;11.57;;;;;;;;;;4972075;28;20046;-74
2021/12/11 00:23:04;;;;;;;24.10;11.37;;;;;;;;;;4973235;28;20364;-76
2021/12/11 00:25:30;;;;;;;28.63;12.40;;;;;;;;;;4971899;28;20470;-76
2021/12/11 00:28:04;;;;;;;24.93;10.67;;;;;;;;;;4971699;28;20034;-75
2021/12/11 00:30:38;;;;;;;23.27;12.40;;;;;;;;;;4971539;28;20054;-76
2021/12/11 00:33:13;;;;;;;23.10;12.47;;;;;;;;;;4972383;28;20058;-76
2021/12/11 00:35:39;;;;;;;22.27;11.37;;;;;;;;;;4971501;28;20061;-75
2021/12/11 00:38:10;;;;;;;23.17;11.70;;;;;;;;;;4973264;28;20495;-75
2021/12/11 00:40:39;;;;;;;25.83;11.93;;;;;;;;;;4971793;28;20493;-76
2021/12/11 00:43:07;;;;;;;25.20;11.87;;;;;;;;;;4972162;28;20065;-76
2021/12/11 00:45:38;;;;;;;24.73;11.53;;;;;;;;;;4971633;28;20476;-76
2021/12/11 00:48:19;;;;;;;23.07;12.50;;;;;;;;;;4973234;28;20026;-74
2021/12/11 00:50:47;;;;;;;26.00;12.73;;;;;;;;;;4972879;28;20053;-76
2021/12/11 00:53:28;;;;;;;27.77;12.63;;;;;;;;;;4971331;28;20014;-76
2021/12/11 00:56:10;;;;;;;24.13;10.97;;;;;;;;;;4972872;28;20080;-74
2021/12/11 00:58:38;;;;;;;25.98;12.52;;;;;;;;;;4972710;28;20023;-75
2021/12/11 01:01:07;;;;;;;25.63;12.23;;;;;;;;;;4971203;28;20034;-75
2021/12/11 01:03:49;;;;;;;21.53;11.77;;;;;;;;;;4972305;28;20019;-75
2021/12/11 01:06:23;;;;;;;24.20;11.52;;;;;;;;;;4972366;28;20030;-75
2021/12/11 01:08:57;;;;;;;28.43;13.00;;;;;;;;;;4971068;28;20038;-76
2021/12/11 01:11:34;;;;;;;24.60;11.27;;;;;;;;;;4972247;28;20434;-74
2021/12/11 01:14:14;;;;;;;28.67;12.57;;;;;;;;;;4971020;28;20399;-75
2021/12/11 01:16:40;;;;;;;24.33;11.60;;;;;;;;;;4972348;28;20022;-76
2021/12/11 01:19:07;;;;;;;22.50;11.00;;;;;;;;;;4970665;28;20031;-76
2021/12/11 01:24:16;;;;;;;23.67;11.67;;;;;;;;;;4972281;28;20027;-75
2021/12/11 01:26:51;;;;;;;23.13;10.63;;;;;;;;;;4970922;28;20552;-75
2021/12/11 01:29:20;;;;;;;29.23;12.43;;;;;;;;;;4970417;28;20057;-74
2021/12/11 01:31:47;;;;;;;21.87;11.33;;;;;;;;;;4970683;28;20027;-76
2021/12/11 01:34:13;;;;;;;26.80;11.40;;;;;;;;;;4971748;28;20483;-75
2021/12/11 01:36:40;;;;;;;27.30;12.43;;;;;;;;;;4970366;28;20043;-75
2021/12/11 01:39:18;;;;;;;26.03;12.00;;;;;;;;;;4972086;28;20061;-76
2021/12/11 01:41:47;;;;;;;20.50;11.23;;;;;;;;;;4972189;28;20034;-76
2021/12/11 01:44:19;;;;;;;25.10;12.23;;;;;;;;;;4973821;28;20031;-73
2021/12/11 01:46:45;;;;;;;27.00;12.02;;;;;;;;;;4977054;28;20018;-77
2021/12/11 01:49:19;;;;;;;25.13;13.00;;;;;;;;;;4973279;28;20054;-76
2021/12/11 01:51:52;;;;;;;24.57;11.83;;;;;;;;;;4971834;28;20108;-76
2021/12/11 01:54:30;;;;;;;24.10;11.00;;;;;;;;;;4971857;28;20027;-74
2021/12/11 01:57:01;;;;;;;25.10;10.83;;;;;;;;;;4972631;28;20045;-77
2021/12/11 01:59:32;;;;;;;24.67;10.90;;;;;;;;;;4970058;28;20030;-76
2021/12/11 02:02:08;;;;;;;26.08;11.45;;;;;;;;;;4970366;28;20030;-76
2021/12/11 02:04:39;;;;;;;25.40;10.80;;;;;;;;;;4971088;28;20120;-76
2021/12/11 02:07:16;;;;;;;27.90;11.90;;;;;;;;;;4970422;28;20029;-75
2021/12/11 02:09:50;;;;;;;24.00;11.20;;;;;;;;;;4971500;28;20022;-76
2021/12/11 02:12:23;;;;;;;26.60;12.17;;;;;;;;;;4954881;28;20034;-76
2021/12/11 02:14:52;;;;;;;23.60;11.30;;;;;;;;;;4971415;28;20030;-76
2021/12/11 02:17:23;;;;;;;21.43;11.17;;;;;;;;;;4970331;28;20479;-76
2021/12/11 02:19:50;;;;;;;20.30;11.00;;;;;;;;;;4969791;28;20227;-76
2021/12/11 02:22:20;;;;;;;24.27;11.20;;;;;;;;;;4969921;28;20037;-76
2021/12/11 02:24:55;;;;;;;28.63;12.57;;;;;;;;;;4969671;28;20029;-76
2021/12/11 02:27:23;;;;;;;21.20;10.90;;;;;;;;;;4970923;28;20045;-76
2021/12/11 02:30:20;;;;;;;27.43;11.70;;;;;;;;;;4969740;28;20073;-75
2021/12/11 02:33:06;;;;;;;23.50;11.23;;;;;;;;;;4970900;28;20035;-76
2021/12/11 02:35:39;;;;;;;26.17;10.97;;;;;;;;;;4969523;28;20082;-75
2021/12/11 02:38:16;;;;;;;24.10;11.47;;;;;;;;;;4969643;28;20033;-76
2021/12/11 02:41:07;;;;;;;23.27;10.83;;;;;;;;;;4969564;28;20049;-74
2021/12/11 02:43:54;;;;;;;23.77;10.73;;;;;;;;;;4971184;28;20019;-75
2021/12/11 02:46:48;;;;;;;25.53;11.60;;;;;;;;;;4969171;28;20038;-75
2021/12/11 02:49:19;;;;;;;26.27;11.40;;;;;;;;;;4970302;28;20046;-76
2021/12/11 02:51:51;;;;;;;28.17;12.50;;;;;;;;;;4970909;28;20452;-75
2021/12/11 02:54:31;;;;;;;24.10;10.90;;;;;;;;;;4969973;28;20058;-75
2021/12/11 02:57:03;;;;;;;24.57;11.67;;;;;;;;;;4976132;28;20085;-76
2021/12/11 02:59:31;;;;;;;24.77;11.23;;;;;;;;;;4975671;28;20026;-75
2021/12/11 03:02:24;;;;;;;25.10;11.50;;;;;;;;;;4975762;28;20114;-76
2021/12/11 03:05:07;;;;;;;27.37;11.60;;;;;;;;;;4977348;28;20081;-75
2021/12/11 03:07:38;;;;;;;23.00;11.27;;;;;;;;;;4961870;28;20112;-76
2021/12/11 03:10:10;;;;;;;26.13;11.23;;;;;;;;;;4992028;28;20039;-75
2021/12/11 03:12:36;;;;;;;20.67;11.25;;;;;;;;;;4975829;28;20386;-74
2021/12/11 03:15:03;;;;;;;23.50;10.97;;;;;;;;;;4977463;28;20037;-77
2021/12/11 03:17:29;;;;;;;27.87;11.47;;;;;;;;;;4977226;28;20027;-76
2021/12/11 03:19:55;;;;;;;22.70;10.83;;;;;;;;;;4975821;28;20125;-77
2021/12/11 03:22:30;;;;;;;24.30;11.33;;;;;;;;;;4975403;28;20023;-75
2021/12/11 03:25:01;;;;;;;18.93;9.07;;;;;;;;;;4975893;28;20498;-75
2021/12/11 03:27:27;;;;;;;25.83;12.47;;;;;;;;;;4975655;28;20061;-75
2021/12/11 03:29:53;;;;;;;27.77;10.90;;;;;;;;;;4975495;28;20062;-76
2021/12/11 03:32:19;;;;;;;26.90;12.23;;;;;;;;;;4975603;28;20034;-75
2021/12/11 03:34:46;;;;;;;20.77;10.10;;;;;;;;;;4976949;28;20050;-76
2021/12/11 03:37:14;;;;;;;20.83;10.30;;;;;;;;;;4976719;28;20046;-75
2021/12/11 03:39:43;;;;;;;21.00;9.90;;;;;;;;;;4976646;28;20480;-75
2021/12/11 03:42:14;;;;;;;25.03;10.50;;;;;;;;;;4976657;28;20018;-74
2021/12/11 03:44:42;;;;;;;27.05;12.13;;;;;;;;;;4975313;28;20469;-76
2021/12/11 03:47:14;;;;;;;23.33;10.53;;;;;;;;;;4975896;28;20117;-75
2021/12/11 03:49:40;;;;;;;29.53;12.33;;;;;;;;;;4976759;28;20448;-75
2021/12/11 03:52:08;;;;;;;27.73;10.63;;;;;;;;;;4975772;28;20081;-77
2021/12/11 03:54:37;;;;;;;21.90;10.87;;;;;;;;;;4975551;28;20058;-75
2021/12/11 03:57:04;;;;;;;24.07;10.43;;;;;;;;;;4975424;28;20170;-76
2021/12/11 03:59:31;;;;;;;23.70;11.67;;;;;;;;;;4975205;28;20404;-77
2021/12/11 04:02:02;;;;;;;23.07;10.50;;;;;;;;;;4975058;28;20031;-76
2021/12/11 04:04:34;;;;;;;21.23;9.30;;;;;;;;;;4975021;28;20035;-75
2021/12/11 04:07:02;;;;;;;25.77;10.37;;;;;;;;;;4972283;28;20054;-77
2021/12/11 04:09:28;;;;;;;24.10;10.23;;;;;;;;;;4973278;28;20027;-75
2021/12/11 04:11:55;;;;;;;22.70;10.40;;;;;;;;;;4973634;28;20066;-76
2021/12/11 04:14:24;;;;;;;23.23;10.43;;;;;;;;;;4972370;28;20444;-75
2021/12/11 04:16:52;;;;;;;26.70;11.20;;;;;;;;;;4971987;28;20038;-76
2021/12/11 04:19:18;;;;;;;23.43;11.80;;;;;;;;;;4972447;28;20039;-74
2021/12/11 04:21:45;;;;;;;20.63;9.50;;;;;;;;;;4972110;28;20030;-77
2021/12/11 04:24:13;;;;;;;22.83;10.60;;;;;;;;;;4972831;28;20035;-76
2021/12/11 04:26:39;;;;;;;21.07;9.33;;;;;;;;;;4973570;28;20037;-76
2021/12/11 04:29:06;;;;;;;27.30;11.23;;;;;;;;;;4973128;28;20506;-76
2021/12/11 04:31:35;;;;;;;24.03;11.47;;;;;;;;;;4972973;28;20110;-76
2021/12/11 04:34:07;;;;;;;25.77;11.53;;;;;;;;;;4973137;28;20034;-77
2021/12/11 04:36:39;;;;;;;23.30;10.30;;;;;;;;;;4973077;28;20057;-76
2021/12/11 04:39:08;;;;;;;20.83;10.77;;;;;;;;;;4971708;28;20046;-75
2021/12/11 04:41:44;;;;;;;27.20;11.13;;;;;;;;;;4972915;28;20049;-76
2021/12/11 04:44:16;;;;;;;23.10;10.43;;;;;;;;;;4971740;28;20029;-74
2021/12/11 04:46:42;;;;;;;24.20;11.07;;;;;;;;;;4972794;28;20033;-74
2021/12/11 04:49:23;;;;;;;22.50;10.63;;;;;;;;;;4972839;28;20034;-75
2021/12/11 04:52:00;;;;;;;24.73;11.07;;;;;;;;;;4972882;28;20034;-75
2021/12/11 05:02:40;;;;;;;26.63;11.40;;;;;;;;;;4971892;28;20570;-74
2021/12/11 05:05:50;;;;;;;29.70;10.67;;;;;;;;;;4972536;28;20030;-77
2021/12/11 05:08:12;;;;;;;24.33;10.80;;;;;;;;;;4972302;28;20042;-74
2021/12/11 05:10:52;;;;;;;21.67;10.23;;;;;;;;;;4970814;28;20052;-75
2021/12/11 05:13:18;;;;;;;24.60;11.37;;;;;;;;;;4972497;28;20038;-76
2021/12/11 05:15:47;;;;;;;25.03;10.47;;;;;;;;;;4972236;28;20027;-75
2021/12/11 05:18:15;;;;;;;27.73;11.80;;;;;;;;;;4971610;28;20043;-76
2021/12/11 05:20:44;;;;;;;31.87;11.23;;;;;;;;;;4971893;28;20037;-76
2021/12/11 05:23:10;;;;;;;20.93;9.57;;;;;;;;;;4972119;28;20034;-75
2021/12/11 05:25:35;;;;;;;25.47;11.63;;;;;;;;;;4971955;28;20046;-74
2021/12/11 05:28:01;;;;;;;24.50;10.57;;;;;;;;;;4971028;28;20065;-75
2021/12/11 05:30:33;;;;;;;26.90;11.37;;;;;;;;;;4972435;28;20026;-74
2021/12/11 05:32:59;;;;;;;25.77;10.97;;;;;;;;;;4970723;28;20034;-74
2021/12/11 05:35:29;;;;;;;27.33;10.33;;;;;;;;;;4970412;28;20069;-75
2021/12/11 05:37:56;;;;;;;27.53;11.77;;;;;;;;;;4971848;28;20052;-76
2021/12/11 05:40:24;;;;;;;23.57;10.60;;;;;;;;;;4971037;28;20035;-77
2021/12/11 05:42:50;;;;;;;23.17;10.57;;;;;;;;;;4970958;28;20275;-76
2021/12/11 05:45:16;;;;;;;23.70;10.37;;;;;;;;;;4972249;28;20031;-75
2021/12/11 05:47:43;;;;;;;22.77;10.80;;;;;;;;;;4970181;28;20035;-76
2021/12/11 05:50:17;;;;;;;25.93;11.10;;;;;;;;;;4971606;28;20080;-76
2021/12/11 05:52:44;;;;;;;25.60;11.30;;;;;;;;;;4972471;28;20026;-75
2021/12/11 05:55:14;;;;;;;23.90;10.17;;;;;;;;;;4972648;28;20494;-73
2021/12/11 05:57:41;;;;;;;24.40;10.90;;;;;;;;;;4970408;28;20454;-75
2021/12/11 06:00:10;;;;;;;27.87;11.67;;;;;;;;;;4970362;28;20053;-76
2021/12/11 06:02:36;;;;;;;28.43;12.23;;;;;;;;;;4970129;28;20434;-76
2021/12/11 06:05:03;;;;;;;25.17;10.97;;;;;;;;;;4970123;28;20121;-75
2021/12/11 06:07:30;;;;;;;23.77;10.13;;;;;;;;;;4986106;28;20039;-76
2021/12/11 06:10:17;;;;;;;26.77;11.30;;;;;;;;;;4971653;28;20054;-77
2021/12/11 06:12:45;;;;;;;24.47;10.60;;;;;;;;;;4973603;28;20034;-76
2021/12/11 06:15:11;;;;;;;22.40;10.30;;;;;;;;;;4974213;28;20038;-75
2021/12/11 06:17:41;;;;;;;26.57;11.57;;;;;;;;;;4973512;28;20479;-74
2021/12/11 06:20:09;;;;;;;50.23;18.07;;;;;;;;;;4972770;28;20030;-75
2021/12/11 06:22:35;;;;;;;27.40;11.93;;;;;;;;;;4972477;28;20116;-76
2021/12/11 06:25:09;;;;;;;26.70;11.43;;;;;;;;;;4971189;28;20105;-76
2021/12/11 06:27:36;;;;;;;27.30;10.97;;;;;;;;;;4971127;28;20034;-75
2021/12/11 06:30:04;;;;;;;24.57;11.37;;;;;;;;;;4968706;28;20050;-75
2021/12/11 06:32:29;;;;;;;23.20;11.37;;;;;;;;;;4969588;28;20038;-71
2021/12/11 06:34:59;;;;;;;25.37;10.87;;;;;;;;;;4969702;28;20034;-75
2021/12/11 06:37:25;;;;;;;21.93;10.30;;;;;;;;;;4969541;28;20046;-77
2021/12/11 06:39:52;;;;;;;23.57;11.60;;;;;;;;;;4970551;28;20035;-75
2021/12/11 06:42:20;;;;;;;22.77;10.73;;;;;;;;;;4969494;28;20479;-76
2021/12/11 06:44:47;;;;;;;26.97;12.30;;;;;;;;;;4969286;28;20069;-74
2021/12/11 06:47:14;;;;;;;26.97;11.53;;;;;;;;;;4970881;28;20035;-75
2021/12/11 06:49:42;;;;;;;24.67;10.27;;;;;;;;;;4970558;28;20038;-75
2021/12/11 06:52:15;;;;;;;25.77;11.50;;;;;;;;;;4970983;28;20030;-76
2021/12/11 06:54:41;;;;;;;24.00;10.50;;;;;;;;;;4970923;28;20398;-76
2021/12/11 06:57:08;;;;;;;27.37;11.83;;;;;;;;;;4969455;28;20037;-76
2021/12/11 06:59:34;;;;;;;24.97;11.60;;;;;;;;;;4970538;28;20452;-76
2021/12/11 07:02:00;;;;;;;24.10;11.50;;;;;;;;;;4970846;28;20050;-77
2021/12/11 07:04:25;;;;;;;22.30;11.23;;;;;;;;;;4970744;28;20045;-77
2021/12/11 07:06:53;;;;;;;28.57;10.93;;;;;;;;;;4969325;28;20042;-77
2021/12/11 07:09:20;;;;;;;26.00;11.50;;;;;;;;;;4970835;28;20396;-76
2021/12/11 07:11:47;;;;;;;25.47;11.10;;;;;;;;;;4970566;28;20398;-76
2021/12/11 07:14:16;;;;;;;23.50;10.47;;;;;;;;;;4970510;28;20077;-76
2021/12/11 07:16:43;;;;;;;26.50;12.27;;;;;;;;;;4968970;28;20566;-77
2021/12/11 07:19:08;;;;;;;28.20;11.43;;;;;;;;;;4970504;28;20514;-76
2021/12/11 07:21:35;;;;;;;30.77;11.47;;;;;;;;;;4969325;28;20026;-75
2021/12/11 07:24:01;;;;;;;26.57;12.50;;;;;;;;;;4969580;28;20035;-76
2021/12/11 07:26:32;;;;;;;25.97;11.70;;;;;;;;;;4969152;28;20055;-75
2021/12/11 07:29:02;;;;;;;25.67;12.00;;;;;;;;;;4969405;28;20530;-75
2021/12/11 07:31:29;;;;;;;24.90;11.30;;;;;;;;;;4969032;28;20027;-77
2021/12/11 07:33:55;;;;;;;31.67;12.07;;;;;;;;;;4968832;28;20065;-77
2021/12/11 07:36:22;;;;;;;25.23;11.03;;;;;;;;;;4968924;28;20057;-75
2021/12/11 07:38:48;;;;;;;30.17;12.97;;;;;;;;;;4970289;28;20031;-75
2021/12/11 07:41:15;;;;;;;25.57;11.73;;;;;;;;;;4971304;28;20177;-75
2021/12/11 07:43:44;;;;;;;26.23;12.70;;;;;;;;;;4973802;28;20065;-77
2021/12/11 07:46:13;;;;;;;25.43;10.93;;;;;;;;;;4974033;28;20043;-76
2021/12/11 07:48:42;;;;;;;27.87;12.33;;;;;;;;;;4974020;28;20042;-75
2021/12/11 07:51:09;;;;;;;20.97;10.03;;;;;;;;;;4972418;28;20022;-76
2021/12/11 07:53:35;;;;;;;29.27;12.33;;;;;;;;;;4972243;28;20034;-76
2021/12/11 07:56:01;;;;;;;26.07;11.53;;;;;;;;;;4972760;28;20033;-75
2021/12/11 07:58:29;;;;;;;27.67;12.47;;;;;;;;;;4972712;28;20031;-77
2021/12/11 08:00:56;;;;;;;25.17;10.73;;;;;;;;;;4972288;28;20116;-76
2021/12/11 08:03:22;;;;;;;36.53;14.63;;;;;;;;;;4973463;28;20061;-77
2021/12/11 08:05:50;;;;;;;40.47;19.67;;;;;;;;;;4972392;28;20027;-76
2021/12/11 08:08:17;;;;;;;28.63;13.87;;;;;;;;;;4973495;28;20030;-77
2021/12/11 08:10:47;;;;;;;26.20;12.20;;;;;;;;;;4973636;28;20487;-76
2021/12/11 08:13:14;;;;;;;25.17;11.90;;;;;;;;;;4974077;28;20037;-75
2021/12/11 08:15:40;;;;;;;26.40;12.37;;;;;;;;;;4972100;28;20469;-77
2021/12/11 08:18:08;;;;;;;27.30;12.20;;;;;;;;;;4973537;28;20041;-76
2021/12/11 08:20:35;;;;;;;25.93;11.80;;;;;;;;;;4973216;28;20093;-77
2021/12/11 08:23:02;;;;;;;30.93;12.10;;;;;;;;;;4972090;28;20126;-76
2021/12/11 08:25:30;;;;;;;29.07;12.17;;;;;;;;;;4973388;28;20030;-76
2021/12/11 08:27:56;;;;;;;27.77;13.30;;;;;;;;;;4971658;28;20422;-76
2021/12/11 08:30:23;;;;;;;25.20;11.87;;;;;;;;;;4989138;28;20030;-77
2021/12/11 08:32:49;;;;;;;27.20;11.73;;;;;;;;;;4976801;28;20034;-75
2021/12/11 08:35:16;;;;;;;29.83;13.10;;;;;;;;;;4973010;28;20207;-76
2021/12/11 08:37:44;;;;;;;31.20;13.97;;;;;;;;;;4975007;28;20121;-78
2021/12/11 08:40:17;;;;;;;34.23;13.67;;;;;;;;;;4974506;28;20034;-77
2021/12/11 08:42:43;;;;;;;28.70;12.97;;;;;;;;;;4977128;28;20031;-77
2021/12/11 08:45:20;;;;;;;32.37;16.43;;;;;;;;;;4973411;28;20034;-76
2021/12/11 08:47:46;;;;;;;32.20;12.63;;;;;;;;;;4971478;28;20042;-76
2021/12/11 08:50:15;;;;;;;30.10;13.23;;;;;;;;;;4971567;28;20054;-76
2021/12/11 08:52:43;;;;;;;29.23;12.67;;;;;;;;;;4970831;28;20461;-74
2021/12/11 08:55:14;;;;;;;31.27;13.13;;;;;;;;;;4987333;28;20049;-74
2021/12/11 08:57:41;;;;;;;27.30;12.73;;;;;;;;;;4970985;28;20039;-77
2021/12/11 09:00:42;;;;;;;32.40;13.83;;;;;;;;;;4971226;28;20046;-77
2021/12/11 09:03:15;;;;;;;46.60;16.93;;;;;;;;;;4973338;28;20019;-74
2021/12/11 09:05:56;;;;;;;42.17;13.40;;;;;;;;;;4971171;28;20031;-77
2021/12/11 09:08:33;;;;;;;34.40;13.30;;;;;;;;;;4971588;28;20054;-78
2021/12/11 09:11:08;;;;;;;33.80;14.47;;;;;;;;;;4970779;28;20034;-77
2021/12/11 09:13:49;;;;;;;33.13;13.07;;;;;;;;;;4971332;28;20022;-77
2021/12/11 09:16:36;;;;;;;35.30;13.32;;;;;;;;;;4972512;28;20039;-76
2021/12/11 09:19:08;;;;;;;34.83;14.23;;;;;;;;;;4972421;28;20043;-78
2021/12/11 09:22:09;;;;;;;29.75;13.48;;;;;;;;;;4971478;28;20031;-76
2021/12/11 09:24:40;;;;;;;29.10;12.27;;;;;;;;;;4971212;28;20034;-75
2021/12/11 09:27:16;;;;;;;27.37;12.93;;;;;;;;;;4971364;28;20030;-76
2021/12/11 09:29:54;;;;;;;33.47;13.53;;;;;;;;;;4971496;28;20027;-76
2021/12/11 09:32:34;;;;;;;28.87;13.10;;;;;;;;;;4972892;28;20053;-76
2021/12/11 09:35:10;;;;;;;32.60;13.57;;;;;;;;;;4972657;28;20493;-76
2021/12/11 09:37:36;;;;;;;28.80;12.23;;;;;;;;;;4972708;28;20518;-75
2021/12/11 09:40:15;;;;;;;31.87;13.03;;;;;;;;;;4970909;28;20027;-77
2021/12/11 09:42:41;;;;;;;36.40;15.23;;;;;;;;;;4972625;28;20045;-75
2021/12/11 09:45:19;;;;;;;32.57;13.00;;;;;;;;;;4971220;28;20415;-77
2021/12/11 09:47:51;;;;;;;40.23;15.40;;;;;;;;;;4971519;28;20494;-75
2021/12/11 09:50:35;;;;;;;31.67;13.83;;;;;;;;;;4970939;28;20035;-76
2021/12/11 09:53:01;;;;;;;36.73;16.97;;;;;;;;;;4970155;28;20041;-76
2021/12/11 09:55:33;;;;;;;28.87;14.57;;;;;;;;;;4970441;28;20081;-74
2021/12/11 09:58:05;;;;;;;39.07;15.23;;;;;;;;;;4970546;28;20038;-75
2021/12/11 10:00:49;;;;;;;26.20;12.80;;;;;;;;;;4970116;28;20023;-77
2021/12/11 10:03:18;;;;;;;37.63;15.13;;;;;;;;;;4970112;28;20316;-77
2021/12/11 10:05:50;;;;;;;39.10;16.23;;;;;;;;;;4969294;28;20026;-76
2021/12/11 10:08:32;;;;;;;38.03;14.65;;;;;;;;;;4972345;28;20034;-75
2021/12/11 10:11:01;;;;;;;27.47;13.37;;;;;;;;;;4970812;28;20030;-75
2021/12/11 10:13:29;;;;;;;38.57;13.90;;;;;;;;;;4971860;28;20037;-74
2021/12/11 10:15:55;;;;;;;34.83;15.37;;;;;;;;;;4971100;28;20048;-77
2021/12/11 10:18:24;;;;;;;32.93;14.23;;;;;;;;;;4971202;28;20476;-76
2021/12/11 10:21:30;;;;;;;42.23;16.03;;;;;;;;;;4970891;28;20049;-76
2021/12/11 10:23:58;;;;;;;33.53;14.60;;;;;;;;;;4968933;28;20077;-77
2021/12/11 10:26:26;;;;;;;32.73;14.00;;;;;;;;;;4971478;28;20053;-76
2021/12/11 10:28:56;;;;;;;35.60;14.83;;;;;;;;;;4972566;28;20114;-76
2021/12/11 10:31:29;;;;;;;36.07;15.57;;;;;;;;;;4970739;28;20485;-77
2021/12/11 10:33:57;;;;;;;26.20;12.10;;;;;;;;;;4972850;28;20053;-75
2021/12/11 10:36:26;;;;;;;32.50;14.83;;;;;;;;;;4973611;28;20118;-75
2021/12/11 10:38:54;;;;;;;32.63;14.47;;;;;;;;;;4971589;28;20027;-75
2021/12/11 10:41:20;;;;;;;38.33;14.23;;;;;;;;;;4971613;28;20034;-77
2021/12/11 10:43:59;;;;;;;36.93;13.97;;;;;;;;;;4971554;28;20448;-75
2021/12/11 10:46:30;;;;;;;45.00;15.23;;;;;;;;;;4969767;28;20038;-77
2021/12/11 10:48:56;;;;;;;43.47;14.60;;;;;;;;;;4970511;28;20042;-76
2021/12/11 10:51:30;;;;;;;34.97;14.23;;;;;;;;;;4969718;28;20101;-74
2021/12/11 10:53:57;;;;;;;30.10;12.30;;;;;;;;;;4970545;28;20038;-77
2021/12/11 10:56:25;;;;;;;33.90;12.53;;;;;;;;;;4969844;28;20502;-75
2021/12/11 10:59:01;;;;;;;22.27;10.17;;;;;;;;;;4970500;28;20056;-77
2021/12/11 11:01:28;;;;;;;19.93;9.83;;;;;;;;;;4971107;28;20030;-76
2021/12/11 11:03:59;;;;;;;20.87;9.07;;;;;;;;;;4969541;28;20390;-75
2021/12/11 11:06:25;;;;;;;27.53;9.27;;;;;;;;;;4969269;28;20037;-75
2021/12/11 11:08:52;;;;;;;19.40;9.17;;;;;;;;;;4970282;28;20027;-75
2021/12/11 11:11:22;;;;;;;15.20;8.00;;;;;;;;;;4970453;28;20023;-76
2021/12/11 11:13:50;;;;;;;23.20;9.93;;;;;;;;;;4969231;28;20147;-76
2021/12/11 11:16:18;;;;;;;23.10;8.87;;;;;;;;;;4970408;28;20051;-77
2021/12/11 11:18:44;;;;;;;20.90;9.20;;;;;;;;;;4973023;28;20018;-76
2021/12/11 11:21:12;;;;;;;18.73;9.00;;;;;;;;;;4972825;28;20022;-76
2021/12/11 11:23:41;;;;;;;19.53;8.60;;;;;;;;;;4973263;28;20171;-75
2021/12/11 11:26:12;;;;;;;28.57;10.20;;;;;;;;;;4974598;28;20026;-75
2021/12/11 11:28:39;;;;;;;23.00;9.20;;;;;;;;;;4989719;28;20034;-74
2021/12/11 11:31:13;;;;;;;43.23;12.07;;;;;;;;;;4973241;28;20022;-77
2021/12/11 11:33:41;;;;;;;23.90;10.87;;;;;;;;;;4974635;28;20128;-76
2021/12/11 11:36:10;;;;;;;25.20;9.60;;;;;;;;;;4973740;28;20071;-77
2021/12/11 11:38:41;;;;;;;17.03;8.53;;;;;;;;;;4972838;28;20027;-76
2021/12/11 11:41:12;;;;;;;29.70;9.57;;;;;;;;;;4972872;28;20530;-76
2021/12/11 11:43:39;;;;;;;17.85;9.30;;;;;;;;;;4974111;28;20120;-76
2021/12/11 11:46:05;;;;;;;20.17;9.63;;;;;;;;;;4973949;28;20026;-77
2021/12/11 11:48:32;;;;;;;32.50;9.60;;;;;;;;;;4972648;28;20386;-76
2021/12/11 11:51:04;;;;;;;19.77;9.17;;;;;;;;;;4972526;28;20065;-76
2021/12/11 11:53:30;;;;;;;15.80;8.25;;;;;;;;;;4972389;28;20023;-75
2021/12/11 11:56:01;;;;;;;16.50;8.07;;;;;;;;;;4972614;28;20038;-75
2021/12/11 11:58:28;;;;;;;13.67;7.43;;;;;;;;;;4973918;28;20034;-77
2021/12/11 12:01:00;;;;;;;13.27;7.23;;;;;;;;;;4972194;28;20034;-77
2021/12/11 12:03:29;;;;;;;23.85;8.57;;;;;;;;;;4973573;28;20255;-77
2021/12/11 12:05:59;;;;;;;24.53;7.73;;;;;;;;;;4972214;28;20027;-75
2021/12/11 12:08:25;;;;;;;19.87;7.57;;;;;;;;;;4971733;28;20030;-76
2021/12/11 12:10:52;;;;;;;15.93;8.20;;;;;;;;;;4973297;28;20031;-77
2021/12/11 12:13:22;;;;;;;22.23;8.27;;;;;;;;;;4972115;28;20046;-76
2021/12/11 12:15:50;;;;;;;23.33;9.10;;;;;;;;;;4973415;28;20038;-75
2021/12/11 12:18:18;;;;;;;15.27;8.60;;;;;;;;;;4972003;28;20122;-75
2021/12/11 12:20:44;;;;;;;20.13;9.73;;;;;;;;;;4973247;28;20035;-76
2021/12/11 12:23:11;;;;;;;18.73;9.27;;;;;;;;;;4973213;28;20030;-75
2021/12/11 12:25:40;;;;;;;17.97;8.20;;;;;;;;;;4973344;28;20201;-77
2021/12/11 12:28:05;;;;;;;23.67;9.43;;;;;;;;;;4970831;28;20637;-77
2021/12/11 12:30:41;;;;;;;18.37;8.57;;;;;;;;;;4972088;28;20113;-76
2021/12/11 12:33:08;;;;;;;31.43;10.30;;;;;;;;;;4987907;28;20027;-76
2021/12/11 12:35:35;;;;;;;36.70;10.43;;;;;;;;;;4972980;28;20065;-75
2021/12/11 12:38:03;;;;;;;23.33;11.07;;;;;;;;;;4973195;28;20027;-76
2021/12/11 12:40:34;;;;;;;24.10;10.77;;;;;;;;;;4972170;28;20023;-77
2021/12/11 12:46:07;;;;;;;36.80;13.13;;;;;;;;;;4973201;28;20053;-76
2021/12/11 12:48:33;;;;;;;28.27;11.90;;;;;;;;;;4972010;28;20483;-77
2021/12/11 12:51:04;;;;;;;17.23;9.97;;;;;;;;;;4972828;28;20030;-76
2021/12/11 12:53:35;;;;;;;21.48;11.07;;;;;;;;;;4971641;28;20483;-77
2021/12/11 12:56:11;;;;;;;25.87;12.33;;;;;;;;;;4971656;28;20042;-73
2021/12/11 12:58:47;;;;;;;26.20;11.90;;;;;;;;;;4971572;28;20215;-75
2021/12/11 13:01:36;;;;;;;26.23;12.60;;;;;;;;;;4972763;28;20389;-76
2021/12/11 13:04:06;;;;;;;38.47;14.43;;;;;;;;;;4984936;28;20034;-76
2021/12/11 13:06:37;;;;;;;28.67;14.37;;;;;;;;;;4987538;28;20041;-74
2021/12/11 13:09:13;;;;;;;30.55;12.98;;;;;;;;;;4955889;28;20077;-76
2021/12/11 13:11:44;;;;;;;33.53;12.87;;;;;;;;;;4971748;28;20327;-77
2021/12/11 13:14:10;;;;;;;29.80;13.13;;;;;;;;;;4972929;28;20746;-76
2021/12/11 13:16:40;;;;;;;19.27;9.90;;;;;;;;;;4972570;28;20485;-77
2021/12/11 13:19:11;;;;;;;30.00;13.73;;;;;;;;;;4955346;28;20085;-77
2021/12/11 13:21:41;;;;;;;32.00;13.38;;;;;;;;;;4971573;28;20581;-76
2021/12/11 13:24:11;;;;;;;28.90;13.83;;;;;;;;;;4970929;28;20034;-75
2021/12/11 13:26:39;;;;;;;31.17;14.23;;;;;;;;;;4971493;28;20767;-76
2021/12/11 13:29:09;;;;;;;29.47;13.57;;;;;;;;;;4971621;28;20388;-75
2021/12/11 13:31:47;;;;;;;31.63;13.87;;;;;;;;;;4973255;28;20449;-78
2021/12/11 13:34:14;;;;;;;32.80;14.83;;;;;;;;;;4971602;28;20129;-77
2021/12/11 13:36:41;;;;;;;30.47;13.80;;;;;;;;;;4971892;28;20058;-75
2021/12/11 13:39:13;;;;;;;31.87;14.03;;;;;;;;;;4970612;28;20026;-77
2021/12/11 13:41:43;;;;;;;33.00;14.27;;;;;;;;;;4955641;28;20472;-75
2021/12/11 13:44:10;;;;;;;34.57;14.43;;;;;;;;;;4970926;28;20041;-76
2021/12/11 13:46:36;;;;;;;53.63;24.10;;;;;;;;;;4971143;28;20035;-75
2021/12/11 13:49:05;;;;;;;33.80;15.33;;;;;;;;;;4973999;28;20182;-74
2021/12/11 13:51:35;;;;;;;38.70;15.40;;;;;;;;;;4970845;28;20023;-77
2021/12/11 13:54:01;;;;;;;27.90;13.93;;;;;;;;;;4970724;28;20027;-76
2021/12/11 13:56:36;;;;;;;30.63;13.93;;;;;;;;;;4971670;28;20027;-74
2021/12/11 13:59:03;;;;;;;30.97;14.90;;;;;;;;;;4954908;28;20056;-77
2021/12/11 14:01:32;;;;;;;33.10;15.33;;;;;;;;;;4971880;28;20041;-76
2021/12/11 14:03:58;;;;;;;40.47;17.27;;;;;;;;;;4971779;28;20026;-75
2021/12/11 14:06:28;;;;;;;36.47;14.27;;;;;;;;;;4970619;28;20105;-75
2021/12/11 14:09:06;;;;;;;37.17;16.07;;;;;;;;;;4970637;28;20027;-75
2021/12/11 14:11:34;;;;;;;34.93;15.27;;;;;;;;;;4970212;28;20023;-74
2021/12/11 14:13:59;;;;;;;37.70;16.43;;;;;;;;;;4971725;28;20022;-75
2021/12/11 14:16:26;;;;;;;44.87;16.57;;;;;;;;;;4971258;28;20033;-75
2021/12/11 14:18:53;;;;;;;34.13;14.70;;;;;;;;;;4970601;28;20031;-76
2021/12/11 14:21:20;;;;;;;36.67;17.17;;;;;;;;;;4971636;28;20027;-76
2021/12/11 14:23:50;;;;;;;34.27;16.93;;;;;;;;;;4971952;28;20030;-76
2021/12/11 14:26:17;;;;;;;36.83;16.93;;;;;;;;;;4972331;28;20541;-77
2021/12/11 14:28:43;;;;;;;37.60;16.67;;;;;;;;;;4970074;28;20045;-77
2021/12/11 14:31:14;;;;;;;42.00;17.97;;;;;;;;;;4971209;28;20051;-76
2021/12/11 14:33:40;;;;;;;38.77;17.73;;;;;;;;;;4971502;28;20054;-78
2021/12/11 14:36:10;;;;;;;43.90;17.97;;;;;;;;;;4969843;28;20419;-78
2021/12/11 14:38:40;;;;;;;39.17;16.70;;;;;;;;;;4986211;28;20122;-75
2021/12/11 14:41:06;;;;;;;40.10;18.17;;;;;;;;;;4970153;28;20034;-75
2021/12/11 14:43:33;;;;;;;38.47;17.50;;;;;;;;;;4971050;28;20034;-78
2021/12/11 14:46:00;;;;;;;45.47;18.90;;;;;;;;;;4969800;28;20027;-75
2021/12/11 14:48:26;;;;;;;39.93;17.17;;;;;;;;;;4970061;28;20034;-76
2021/12/11 14:51:03;;;;;;;40.67;18.70;;;;;;;;;;4971231;28;20015;-75